NCAR-RAP Real-Time Weather Data

Output produced by METARs form (12 August 2020  17:30 UTC)
found at http://weather.rap.ucar.edu/surface/
 
KJAX 121656Z 28006KT 10SM FEW030 FEW150 BKN250 31/23 A3003 RMK AO2 SLP168 T03060228
KJAX 121556Z 26007KT 10SM FEW030 FEW150 BKN250 29/23 A3004 RMK AO2 SLP172 T02940228
KJAX 121456Z 24005KT 10SM FEW020 FEW150 BKN250 28/23 A3004 RMK AO2 SLP172 T02780228 50003
KJAX 121356Z 32006KT 10SM FEW015 FEW150 BKN250 27/22 A3004 RMK AO2 SLP174 T02670222
KJAX 121256Z 28005KT 10SM FEW150 BKN250 25/22 A3004 RMK AO2 SLP174 T02500222
KJAX 121156Z 27004KT 10SM FEW030 FEW150 BKN250 23/22 A3003 RMK AO2 SLP169 70002 T02280222 10228 20217 51013
KJAX 121056Z 00000KT 10SM FEW030 FEW150 BKN250 22/22 A3002 RMK AO2 SLP167 T02220217 $
KJAX 120956Z 00000KT 10SM BKN250 22/22 A3001 RMK AO2 SLP161 T02220217 $
KJAX 120856Z 00000KT 10SM BKN250 22/22 A2999 RMK AO2 SLP157 T02170217 53001 $
KJAX 120756Z 17003KT 9SM BKN250 22/21 A2999 RMK AO2 SLP156 T02170211 $
KJAX 120656Z 00000KT 10SM BKN250 22/22 A2998 RMK AO2 SLP154 T02220217 $
KJAX 120556Z 00000KT 10SM BKN250 22/22 A2999 RMK AO2 SLP156 T02220217 10233 20222 58005 $
KJAX 120456Z 00000KT 10SM FEW140 BKN250 22/22 A3001 RMK AO2 SLP162 T02220217 403280222 $
KJAX 120356Z 23004KT 10SM FEW140 BKN250 22/22 A3002 RMK AO2 SLP167 T02220217 $
KJAX 120256Z 23003KT 10SM BKN140 OVC250 23/22 A3001 RMK AO2 SLP162 T02280217 50009 $
KJAX 120156Z 00000KT 10SM SCT140 BKN200 BKN250 23/22 A3001 RMK AO2 SLP162 T02280217 $
KJAX 120056Z 00000KT 10SM FEW030 SCT070 BKN140 BKN200 23/22 A2999 RMK AO2 SLP157 OCNL LTGIC DSNT W CB DSNT W T02280217 $
KJAX 112356Z 25006KT 10SM FEW030 SCT140 BKN190 BKN250 23/22 A2998 RMK AO2 LTG DSNT NW SLP152 60002 T02280222 10328 20228 53003 $
KJAX 112256Z 16003KT 10SM SCT050 BKN120 BKN250 23/22 A2996 RMK AO2 LTG DSNT W-N RAE55 TSE48 SLP145 P0000 T02330217 $
KJAX 112249Z 00000KT 10SM -RA SCT050 BKN120 BKN250 23/22 A2996 RMK AO2 LTG DSNT SW-N TSE48 P0000 T02330217 $
KJAX 112156Z 24012KT 6SM -TSRA FEW030CB SCT055 BKN120 BKN250 23/21 A2998 RMK AO2 PK WND 14028/2105 WSHFT 2047 LTG DSNT ALQDS SLP153 CONS LTGICCCCG VC W TS VC W MOV SW P0002 T02280211
KJAX 112107Z 16016G28KT 6SM TSRA SCT032CB BKN045 BKN060 OVC250 23/22 A2999 RMK AO2 PK WND 14028/2105 WSHFT 2047 LTG DSNT SE AND S AND NW CONS LTGICCCCG OHD TS OHD MOV S P0001 T02330217
KJAX 112056Z 14016G21KT 10SM TSRA SCT032CB BKN045 BKN060 OVC250 24/23 A2997 RMK AO2 PK WND 06030/2032 LTG DSNT SE AND S AND NW RAB35 SLP149 CONS LTGICCCCG OHD TS OHD MOV S P0000 60000 T02440228 55010
KJAX 111956Z 00000KT 10SM TS BKN033CB BKN065 BKN250 32/24 A2995 RMK AO2 LTG DSNT E-S TSE32B37 SLP141 FRQ LTGICCCCG VC E TS VC E MOV SE T03220239
KJAX 111937Z VRB03KT 10SM TS BKN032CB BKN250 32/24 A2995 RMK AO2 LTG DSNT E AND SE TSE32B37 FRQ LTGICCCCG VC E TS VC E MOV SE T03220244